RJER(METAR)
05/30 15:00
RJER 300600Z 22021KT CAVOK 20/09 Q1012 RMK A2988=
戻る
トップページへ戻る
IMOC Co,.Ltd.